Time;durP1;ratioP1;P1;durP2;ratioP2;P2;SDS_P1;SDS_P2;PMS_P1;PMS_P2;Temp;Humidity;BMP_temperature;BMP_pressure;BME280_temperature;BME280_humidity;BME280_pressure;Samples;Min_cycle;Max_cycle;Signal;HPM_P1;HPM_P2
2023/04/26 00:01:42;;;;;;;5.75;2.33;;;7.70;99.90;;;;;;5057505;28;20027;-68
2023/04/26 00:04:07;;;;;;;7.40;2.65;;;7.70;99.90;;;;;;5057835;28;20032;-67
2023/04/26 00:06:34;;;;;;;4.95;2.30;;;7.70;99.90;;;;;;5058559;28;20056;-68
2023/04/26 00:08:59;;;;;;;6.30;2.38;;;7.60;99.90;;;;;;5057693;28;20028;-68
2023/04/26 00:11:25;;;;;;;5.03;2.80;;;7.50;99.90;;;;;;5058631;28;20031;-68
2023/04/26 00:13:51;;;;;;;6.88;2.47;;;7.50;99.90;;;;;;5058014;28;20025;-68
2023/04/26 00:16:17;;;;;;;4.80;2.83;;;7.40;99.90;;;;;;5057902;28;20025;-68
2023/04/26 00:18:45;;;;;;;6.03;2.65;;;7.20;99.90;;;;;;5058547;28;20029;-68
2023/04/26 00:21:11;;;;;;;4.97;2.20;;;7.00;99.90;;;;;;5057951;28;20021;-68
2023/04/26 00:23:36;;;;;;;8.05;2.85;;;7.00;99.90;;;;;;5057033;28;20027;-68
2023/04/26 00:26:02;;;;;;;4.85;2.60;;;6.90;99.90;;;;;;5057875;28;20031;-68
2023/04/26 00:28:28;;;;;;;5.70;2.38;;;7.00;99.90;;;;;;5057485;28;20029;-68
2023/04/26 00:30:56;;;;;;;12.13;2.97;;;7.00;99.90;;;;;;5056988;28;20051;-68
2023/04/26 00:33:22;;;;;;;6.22;2.65;;;7.10;99.90;;;;;;5058088;28;20021;-69
2023/04/26 00:35:48;;;;;;;6.72;2.83;;;7.00;99.90;;;;;;5057463;28;20082;-70
2023/04/26 00:38:13;;;;;;;13.10;2.47;;;6.90;99.90;;;;;;5056820;28;20029;-69
2023/04/26 00:40:39;;;;;;;4.63;2.28;;;6.90;99.90;;;;;;5057851;28;20021;-69
2023/04/26 00:43:05;;;;;;;5.82;2.80;;;6.90;99.90;;;;;;5056719;28;20064;-69
2023/04/26 00:45:31;;;;;;;4.85;3.17;;;6.80;99.90;;;;;;5056923;28;20066;-69
2023/04/26 00:47:59;;;;;;;7.80;3.20;;;6.60;99.90;;;;;;5056948;28;20055;-69
2023/04/26 00:50:24;;;;;;;5.88;2.88;;;6.40;99.90;;;;;;5056561;28;20059;-69
2023/04/26 00:52:50;;;;;;;5.13;2.63;;;6.30;99.90;;;;;;5057436;28;20028;-69
2023/04/26 00:55:16;;;;;;;6.40;2.90;;;6.30;99.90;;;;;;5056252;28;20088;-69
2023/04/26 00:57:44;;;;;;;10.80;2.63;;;6.20;99.90;;;;;;5056781;28;20070;-69
2023/04/26 01:00:10;;;;;;;9.13;2.67;;;6.20;99.90;;;;;;5056387;28;20048;-69
2023/04/26 01:02:36;;;;;;;10.90;2.25;;;6.10;99.90;;;;;;5056606;28;20017;-69
2023/04/26 01:05:02;;;;;;;4.72;2.65;;;6.10;99.90;;;;;;5057136;28;20020;-69
2023/04/26 01:07:27;;;;;;;8.07;2.80;;;6.10;99.90;;;;;;5056116;28;20060;-69
2023/04/26 01:09:54;;;;;;;7.93;2.55;;;6.10;99.90;;;;;;5056242;28;20031;-69
2023/04/26 01:12:20;;;;;;;7.65;3.08;;;6.20;99.90;;;;;;5056306;28;20027;-69
2023/04/26 01:14:46;;;;;;;6.60;2.90;;;6.30;99.90;;;;;;5056729;28;20024;-70
2023/04/26 01:17:12;;;;;;;5.88;2.97;;;6.30;99.90;;;;;;5056295;28;20024;-70
2023/04/26 01:19:46;;;;;;;5.90;2.13;;;6.30;99.90;;;;;;5056307;28;20055;-69
2023/04/26 01:22:12;;;;;;;6.68;2.75;;;6.30;99.90;;;;;;5056101;28;20029;-69
2023/04/26 01:24:39;;;;;;;8.60;2.90;;;6.20;99.90;;;;;;5056389;28;20025;-69
2023/04/26 01:27:04;;;;;;;6.13;2.60;;;6.10;99.90;;;;;;5056324;28;20021;-69
2023/04/26 01:29:31;;;;;;;4.25;2.78;;;6.00;99.90;;;;;;5056006;28;20043;-69
2023/04/26 01:31:56;;;;;;;7.13;2.65;;;5.90;99.90;;;;;;5056971;28;20088;-69
2023/04/26 01:34:22;;;;;;;5.38;2.80;;;5.70;99.90;;;;;;5055890;28;20055;-69
2023/04/26 01:36:47;;;;;;;6.15;2.95;;;5.50;99.90;;;;;;5056150;28;20021;-69
2023/04/26 01:39:13;;;;;;;6.80;2.97;;;5.40;99.90;;;;;;5056984;28;20059;-69
2023/04/26 01:41:38;;;;;;;6.70;3.50;;;5.30;99.90;;;;;;5056706;28;20025;-69
2023/04/26 01:44:04;;;;;;;5.07;2.60;;;5.30;99.90;;;;;;5055748;28;20025;-70
2023/04/26 01:46:29;;;;;;;5.38;2.85;;;5.30;99.90;;;;;;5055921;28;20039;-69
2023/04/26 01:48:56;;;;;;;7.22;2.50;;;5.20;99.90;;;;;;5055893;28;20035;-69
2023/04/26 01:51:21;;;;;;;7.25;2.65;;;5.20;99.90;;;;;;5056967;28;20025;-69
2023/04/26 01:53:47;;;;;;;5.78;2.50;;;5.20;99.90;;;;;;5055600;28;20025;-69
2023/04/26 01:56:13;;;;;;;4.70;2.60;;;5.20;99.90;;;;;;5056514;28;20032;-69
2023/04/26 01:58:38;;;;;;;4.38;2.20;;;5.10;99.90;;;;;;5055728;28;20089;-69
2023/04/26 02:01:06;;;;;;;6.43;2.53;;;5.00;99.90;;;;;;5056416;28;20066;-69
2023/04/26 02:03:32;;;;;;;6.88;2.40;;;4.90;99.90;;;;;;5059759;28;20024;-68
2023/04/26 02:05:58;;;;;;;3.08;2.20;;;4.70;99.90;;;;;;5059699;28;20029;-69
2023/04/26 02:08:23;;;;;;;4.57;2.58;;;4.60;99.90;;;;;;5059725;28;20049;-75
2023/04/26 02:10:49;;;;;;;5.78;2.05;;;4.50;99.90;;;;;;5059645;28;20108;-73
2023/04/26 02:13:14;;;;;;;7.90;2.95;;;4.40;99.90;;;;;;5059525;28;20110;-73
2023/04/26 02:15:41;;;;;;;8.15;2.08;;;4.40;99.90;;;;;;5059831;28;20029;-75
2023/04/26 02:18:06;;;;;;;7.90;1.73;;;4.40;99.90;;;;;;5059646;28;20032;-75
2023/04/26 02:20:32;;;;;;;2.63;1.98;;;4.40;99.90;;;;;;5059705;28;20021;-75
2023/04/26 02:22:58;;;;;;;4.03;2.45;;;4.40;99.90;;;;;;5060509;28;20029;-76
2023/04/26 02:25:24;;;;;;;8.00;2.70;;;4.50;99.90;;;;;;5059238;28;20029;-76
2023/04/26 02:27:49;;;;;;;7.38;2.20;;;4.40;99.90;;;;;;5060544;28;20025;-77
2023/04/26 02:30:16;;;;;;;4.15;2.67;;;4.40;99.90;;;;;;5059745;28;20025;-75
2023/04/26 02:32:42;;;;;;;4.85;2.33;;;4.50;99.90;;;;;;5059278;28;20032;-75
2023/04/26 02:35:08;;;;;;;3.65;2.50;;;4.50;99.90;;;;;;5059313;28;20017;-75
2023/04/26 02:37:34;;;;;;;4.65;2.35;;;4.50;99.90;;;;;;5060256;28;20021;-77
2023/04/26 02:39:59;;;;;;;5.07;2.40;;;4.60;99.90;;;;;;5058987;28;20025;-76
2023/04/26 02:42:25;;;;;;;5.32;2.67;;;4.90;99.90;;;;;;5059060;28;20032;-76
2023/04/26 02:44:50;;;;;;;3.72;2.40;;;4.90;99.90;;;;;;5058855;28;20029;-76
2023/04/26 02:47:16;;;;;;;7.75;2.70;;;4.90;99.90;;;;;;5059126;28;20025;-76
2023/04/26 02:49:41;;;;;;;6.43;2.30;;;4.80;99.90;;;;;;5058909;28;20047;-76
2023/04/26 02:52:07;;;;;;;10.65;2.67;;;4.80;99.90;;;;;;5058899;28;20032;-76
2023/04/26 02:54:33;;;;;;;8.68;2.83;;;4.90;99.90;;;;;;5058907;28;20025;-76
2023/04/26 02:56:58;;;;;;;8.55;3.58;;;5.00;99.90;;;;;;5059728;28;20025;-76
2023/04/26 02:59:24;;;;;;;3.47;2.35;;;5.00;99.90;;;;;;5058613;28;20022;-77
2023/04/26 03:01:49;;;;;;;9.73;3.25;;;4.90;99.90;;;;;;5058519;28;20028;-77
2023/04/26 03:04:16;;;;;;;4.70;2.42;;;4.70;99.90;;;;;;5058535;28;20091;-69
2023/04/26 03:06:41;;;;;;;5.32;2.20;;;4.60;99.90;;;;;;5058621;28;20106;-69
2023/04/26 03:09:07;;;;;;;8.00;2.88;;;4.50;99.90;;;;;;5059383;28;20033;-69
2023/04/26 03:11:33;;;;;;;5.03;2.95;;;4.50;99.90;;;;;;5058579;28;20021;-69
2023/04/26 03:13:59;;;;;;;6.63;3.20;;;4.50;99.90;;;;;;5058345;28;20039;-69
2023/04/26 03:16:27;;;;;;;9.48;3.17;;;4.50;99.90;;;;;;5058364;28;20031;-69
2023/04/26 03:18:53;;;;;;;4.90;2.70;;;4.50;99.90;;;;;;5058301;28;20017;-69
2023/04/26 03:21:19;;;;;;;14.13;4.18;;;4.40;99.90;;;;;;5059084;28;20150;-69
2023/04/26 03:23:44;;;;;;;13.73;3.90;;;4.40;99.90;;;;;;5058480;28;20056;-69
2023/04/26 03:26:10;;;;;;;3.25;2.45;;;4.30;99.90;;;;;;5058139;28;20110;-69
2023/04/26 03:28:36;;;;;;;3.30;1.80;;;4.20;99.90;;;;;;5058996;28;20033;-69
2023/04/26 03:31:02;;;;;;;5.70;2.17;;;4.10;99.90;;;;;;5058937;28;20150;-69
2023/04/26 03:33:27;;;;;;;5.68;2.80;;;3.90;99.90;;;;;;5058064;28;20021;-69
2023/04/26 03:35:53;;;;;;;5.85;2.95;;;3.80;99.90;;;;;;5058724;28;20036;-69
2023/04/26 03:38:18;;;;;;;7.95;2.97;;;3.70;99.90;;;;;;5058426;28;20025;-69
2023/04/26 03:40:44;;;;;;;10.43;2.60;;;3.70;99.90;;;;;;5058247;28;20017;-68
2023/04/26 03:43:09;;;;;;;3.53;2.35;;;3.60;99.90;;;;;;5058911;28;20100;-68
2023/04/26 03:45:36;;;;;;;7.65;2.88;;;3.70;99.90;;;;;;5057809;28;20043;-68
2023/04/26 03:48:01;;;;;;;5.70;2.33;;;3.70;99.90;;;;;;5058053;28;20029;-68
2023/04/26 03:50:27;;;;;;;7.10;3.08;;;3.70;99.90;;;;;;5058554;28;20085;-68
2023/04/26 03:52:52;;;;;;;5.85;2.58;;;3.60;99.90;;;;;;5057712;28;20064;-68
2023/04/26 03:55:18;;;;;;;5.22;2.63;;;3.70;99.90;;;;;;5057520;28;20021;-68
2023/04/26 03:57:44;;;;;;;4.70;2.50;;;3.70;99.90;;;;;;5057979;28;20017;-68
2023/04/26 04:00:12;;;;;;;7.60;2.72;;;3.70;99.90;;;;;;5057469;28;20017;-67
2023/04/26 04:02:38;;;;;;;8.02;3.20;;;3.70;99.90;;;;;;5058616;28;20028;-68
2023/04/26 04:05:04;;;;;;;6.78;2.63;;;3.70;99.90;;;;;;5057434;28;20021;-73
2023/04/26 04:07:32;;;;;;;3.88;2.53;;;3.70;99.90;;;;;;5057200;28;20033;-72
2023/04/26 04:09:58;;;;;;;5.45;2.90;;;3.80;99.90;;;;;;5057663;28;20017;-72
2023/04/26 04:12:24;;;;;;;7.00;3.08;;;3.80;99.90;;;;;;5057641;28;20021;-72
2023/04/26 04:14:49;;;;;;;9.73;3.00;;;3.80;99.90;;;;;;5058137;28;20021;-72
2023/04/26 04:17:15;;;;;;;7.57;2.72;;;3.80;99.90;;;;;;5057605;28;20035;-72
2023/04/26 04:19:41;;;;;;;6.90;3.00;;;3.80;99.90;;;;;;5058007;28;20100;-72
2023/04/26 04:22:06;;;;;;;4.78;2.50;;;3.70;99.90;;;;;;5057838;28;20021;-72
2023/04/26 04:24:32;;;;;;;8.02;3.08;;;3.40;99.90;;;;;;5057623;28;20075;-72
2023/04/26 04:26:59;;;;;;;4.82;2.80;;;3.20;99.90;;;;;;5056967;28;20021;-72
2023/04/26 04:29:25;;;;;;;5.43;2.67;;;3.10;99.90;;;;;;5058027;28;20162;-73
2023/04/26 04:31:51;;;;;;;4.80;2.95;;;3.10;99.90;;;;;;5057822;28;20075;-72
2023/04/26 04:34:16;;;;;;;8.50;3.00;;;3.00;99.90;;;;;;5056880;28;20093;-72
2023/04/26 04:36:42;;;;;;;5.05;2.83;;;3.10;99.90;;;;;;5057788;28;20052;-72
2023/04/26 04:39:12;;;;;;;7.40;2.65;;;3.10;99.90;;;;;;5057722;28;20025;-72
2023/04/26 04:41:39;;;;;;;4.72;2.90;;;3.20;99.90;;;;;;5056762;28;20021;-72
2023/04/26 04:44:05;;;;;;;5.68;2.75;;;3.20;99.90;;;;;;5056609;28;20108;-72
2023/04/26 04:46:30;;;;;;;7.25;2.90;;;3.20;99.90;;;;;;5056668;28;20052;-73
2023/04/26 04:48:56;;;;;;;8.18;3.53;;;3.30;99.90;;;;;;5056615;28;20029;-72
2023/04/26 04:51:21;;;;;;;7.75;3.35;;;3.30;99.90;;;;;;5056570;28;20021;-72
2023/04/26 04:53:47;;;;;;;8.02;3.70;;;3.30;99.90;;;;;;5057375;28;20032;-72
2023/04/26 04:56:13;;;;;;;10.38;3.38;;;3.30;99.90;;;;;;5057631;28;20029;-72
2023/04/26 04:58:38;;;;;;;4.60;3.17;;;3.30;99.90;;;;;;5057236;28;20024;-72
2023/04/26 05:01:04;;;;;;;7.00;2.78;;;3.40;99.90;;;;;;5057272;28;20025;-72
2023/04/26 05:03:32;;;;;;;9.98;3.20;;;3.50;99.90;;;;;;5057288;28;20013;-73
2023/04/26 05:05:58;;;;;;;5.13;2.55;;;3.70;99.90;;;;;;5056326;28;20051;-72
2023/04/26 05:08:24;;;;;;;7.70;2.60;;;3.90;99.90;;;;;;5056344;28;20021;-73
2023/04/26 05:10:50;;;;;;;10.35;2.60;;;4.10;99.90;;;;;;5057174;28;20028;-72
2023/04/26 05:13:16;;;;;;;9.45;3.03;;;4.20;99.90;;;;;;5056220;28;20025;-76
2023/04/26 05:15:41;;;;;;;5.78;3.42;;;4.30;99.90;;;;;;5057034;28;20021;-77
2023/04/26 05:18:07;;;;;;;8.93;3.20;;;4.30;99.90;;;;;;5057011;28;20017;-76
2023/04/26 05:20:32;;;;;;;7.68;2.92;;;4.40;99.90;;;;;;5056773;28;20021;-76
2023/04/26 05:22:58;;;;;;;6.18;2.88;;;4.40;99.90;;;;;;5056136;28;20021;-75
2023/04/26 05:25:23;;;;;;;5.55;2.97;;;4.50;99.90;;;;;;5056021;28;20021;-76
2023/04/26 05:27:49;;;;;;;5.50;2.70;;;4.50;99.90;;;;;;5056167;28;20025;-76
2023/04/26 05:30:15;;;;;;;6.57;3.30;;;4.40;99.90;;;;;;5056187;28;20029;-68
2023/04/26 05:32:41;;;;;;;8.95;3.42;;;4.40;99.90;;;;;;5056016;28;20046;-68
2023/04/26 05:35:07;;;;;;;7.93;3.60;;;4.50;99.90;;;;;;5056740;28;20021;-68
2023/04/26 05:37:34;;;;;;;13.20;4.15;;;4.50;99.90;;;;;;5055948;28;20029;-68
2023/04/26 05:40:00;;;;;;;8.18;3.50;;;4.50;99.90;;;;;;5055980;28;20030;-68
2023/04/26 05:42:25;;;;;;;4.75;3.10;;;4.60;99.90;;;;;;5055857;28;20028;-68
2023/04/26 05:44:56;;;;;;;6.70;3.45;;;4.60;99.90;;;;;;5055801;28;20030;-68
2023/04/26 05:47:22;;;;;;;14.38;3.47;;;4.70;99.90;;;;;;5056676;28;20032;-72
2023/04/26 05:49:47;;;;;;;7.93;3.22;;;4.70;99.90;;;;;;5056704;28;20033;-72
2023/04/26 05:52:13;;;;;;;13.27;3.50;;;4.80;99.90;;;;;;5055866;28;20036;-72
2023/04/26 05:54:38;;;;;;;8.35;3.45;;;4.80;99.90;;;;;;5056442;28;20028;-72
2023/04/26 05:57:04;;;;;;;6.93;3.10;;;4.80;99.90;;;;;;5055622;28;20086;-72
2023/04/26 05:59:31;;;;;;;9.50;3.15;;;4.90;99.90;;;;;;5055660;28;20025;-72
2023/04/26 06:01:57;;;;;;;7.63;2.95;;;4.90;99.90;;;;;;5056541;28;20017;-73
2023/04/26 06:04:23;;;;;;;6.75;3.08;;;5.00;99.90;;;;;;5055596;28;20032;-72
2023/04/26 06:06:48;;;;;;;8.82;2.97;;;5.10;99.90;;;;;;5055640;28;20025;-73
2023/04/26 06:09:14;;;;;;;9.00;3.15;;;5.20;99.90;;;;;;5056213;28;20033;-72
2023/04/26 06:11:40;;;;;;;12.85;3.38;;;5.20;99.90;;;;;;5056632;28;20025;-73
2023/04/26 06:14:05;;;;;;;10.68;3.30;;;5.20;99.90;;;;;;5056457;28;20068;-72
2023/04/26 06:16:31;;;;;;;11.70;3.28;;;5.40;99.90;;;;;;5056357;28;20035;-73
2023/04/26 06:18:56;;;;;;;6.47;2.42;;;5.50;99.90;;;;;;5055517;28;20030;-72
2023/04/26 06:21:22;;;;;;;12.10;3.08;;;5.50;99.90;;;;;;5055883;28;20028;-72
2023/04/26 06:23:47;;;;;;;7.20;2.45;;;5.40;99.90;;;;;;5056421;28;20029;-73
2023/04/26 06:26:13;;;;;;;5.93;2.50;;;5.50;99.90;;;;;;5055605;28;20021;-72
2023/04/26 06:28:38;;;;;;;11.10;2.85;;;5.60;99.90;;;;;;5055339;28;20032;-72
2023/04/26 06:31:04;;;;;;;6.75;2.22;;;5.70;99.90;;;;;;5056447;28;20025;-72
2023/04/26 06:33:29;;;;;;;16.05;4.85;;;5.70;99.90;;;;;;5055444;28;20025;-73
2023/04/26 06:35:55;;;;;;;14.25;3.50;;;5.80;99.90;;;;;;5055711;28;20166;-73
2023/04/26 06:38:20;;;;;;;6.53;2.58;;;5.90;99.90;;;;;;5056137;28;20017;-72
2023/04/26 06:40:46;;;;;;;8.00;3.08;;;5.90;99.90;;;;;;5056270;28;20108;-73
2023/04/26 06:43:11;;;;;;;9.60;3.03;;;6.00;99.90;;;;;;5055343;28;20079;-72
2023/04/26 06:45:37;;;;;;;9.68;3.17;;;6.10;99.90;;;;;;5055416;28;20092;-73
2023/04/26 06:48:04;;;;;;;6.30;3.05;;;6.10;99.90;;;;;;5058055;28;20035;-73
2023/04/26 06:50:29;;;;;;;7.80;2.47;;;6.10;99.90;;;;;;5058999;28;20035;-73
2023/04/26 06:52:55;;;;;;;7.22;2.22;;;6.20;99.90;;;;;;5059435;28;20119;-73
2023/04/26 06:55:20;;;;;;;8.75;2.40;;;6.30;99.90;;;;;;5058966;28;20087;-73
2023/04/26 06:57:46;;;;;;;6.15;2.38;;;6.40;99.90;;;;;;5058738;28;20033;-73
2023/04/26 07:00:12;;;;;;;4.82;2.38;;;6.50;99.90;;;;;;5058936;28;20029;-72
2023/04/26 07:02:38;;;;;;;8.20;2.72;;;6.40;99.90;;;;;;5058712;28;20049;-73
2023/04/26 07:05:03;;;;;;;10.00;2.75;;;6.40;99.90;;;;;;5060022;28;20032;-73
2023/04/26 07:07:29;;;;;;;7.07;2.20;;;6.50;99.90;;;;;;5059412;28;20071;-73
2023/04/26 07:09:55;;;;;;;6.18;2.25;;;6.50;99.90;;;;;;5058381;28;20032;-72
2023/04/26 07:12:20;;;;;;;7.78;2.63;;;6.60;99.90;;;;;;5059426;28;20028;-72
2023/04/26 07:14:46;;;;;;;9.77;2.28;;;6.80;99.90;;;;;;5058821;28;20056;-72
2023/04/26 07:17:11;;;;;;;7.07;2.33;;;6.70;99.90;;;;;;5058323;28;20025;-72
2023/04/26 07:19:37;;;;;;;7.45;2.25;;;6.80;99.90;;;;;;5058584;28;20021;-73
2023/04/26 07:22:03;;;;;;;8.45;2.65;;;6.90;99.90;;;;;;5058572;28;20067;-73
2023/04/26 07:24:29;;;;;;;8.73;2.75;;;6.90;99.90;;;;;;5059220;28;20013;-73
2023/04/26 07:26:55;;;;;;;12.02;2.22;;;6.90;99.90;;;;;;5058544;28;20031;-73
2023/04/26 07:29:21;;;;;;;11.13;2.42;;;6.90;99.90;;;;;;5059025;28;20025;-73
2023/04/26 07:31:47;;;;;;;7.78;2.65;;;7.00;99.90;;;;;;5058417;28;20082;-73
2023/04/26 07:34:13;;;;;;;6.65;2.28;;;7.00;99.90;;;;;;5057845;28;20025;-73
2023/04/26 07:36:38;;;;;;;21.38;3.50;;;7.10;99.90;;;;;;5058745;28;20025;-79
2023/04/26 07:39:05;;;;;;;15.43;2.33;;;7.60;99.90;;;;;;5058073;28;20028;-73
2023/04/26 07:41:31;;;;;;;5.70;2.15;;;7.90;99.90;;;;;;5059011;28;20017;-72
2023/04/26 07:43:56;;;;;;;7.18;2.10;;;8.00;99.90;;;;;;5057759;28;20024;-73
2023/04/26 07:46:22;;;;;;;8.45;2.45;;;8.20;99.90;;;;;;5058176;28;20029;-73
2023/04/26 07:48:47;;;;;;;6.35;2.70;;;8.20;99.90;;;;;;5058855;28;20052;-72
2023/04/26 07:51:13;;;;;;;7.75;2.47;;;8.00;99.90;;;;;;5057710;28;20116;-74
2023/04/26 07:53:39;;;;;;;5.22;2.15;;;8.00;99.90;;;;;;5058767;28;20112;-74
2023/04/26 07:56:09;;;;;;;12.70;2.88;;;8.30;99.90;;;;;;5058093;28;20025;-72
2023/04/26 07:58:36;;;;;;;7.60;2.25;;;8.50;99.90;;;;;;5058127;28;20025;-73
2023/04/26 08:01:03;;;;;;;8.40;3.35;;;8.60;99.90;;;;;;5057653;28;20064;-73
2023/04/26 08:03:28;;;;;;;14.05;2.70;;;8.80;99.90;;;;;;5058490;28;20025;-75
2023/04/26 08:05:54;;;;;;;5.47;2.40;;;8.90;99.90;;;;;;5058328;28;20063;-75
2023/04/26 08:08:21;;;;;;;9.00;2.33;;;8.70;99.90;;;;;;5058086;28;20031;-75
2023/04/26 08:10:47;;;;;;;4.10;2.10;;;8.90;99.90;;;;;;5058472;28;20033;-75
2023/04/26 08:13:12;;;;;;;7.43;2.42;;;9.10;99.90;;;;;;5058420;28;20081;-74
2023/04/26 08:15:38;;;;;;;5.90;2.10;;;9.10;99.90;;;;;;5058084;28;20028;-74
2023/04/26 08:18:03;;;;;;;5.10;1.95;;;9.00;99.90;;;;;;5057198;28;20021;-75
2023/04/26 08:20:29;;;;;;;4.70;2.15;;;8.90;99.90;;;;;;5057838;28;20112;-74
2023/04/26 08:22:58;;;;;;;9.07;2.17;;;9.10;99.90;;;;;;5058023;28;20013;-74
2023/04/26 08:25:24;;;;;;;4.93;2.03;;;9.20;99.90;;;;;;5057344;28;20032;-74
2023/04/26 08:27:51;;;;;;;9.40;2.30;;;9.20;99.90;;;;;;5057976;28;20049;-73
2023/04/26 08:30:18;;;;;;;4.32;1.83;;;9.20;99.90;;;;;;5057829;28;20035;-74
2023/04/26 08:32:44;;;;;;;5.70;1.88;;;9.30;99.90;;;;;;5057865;28;20040;-74
2023/04/26 08:35:10;;;;;;;11.50;1.90;;;9.20;99.90;;;;;;5057893;28;20021;-75
2023/04/26 08:37:36;;;;;;;7.50;1.60;;;9.10;99.90;;;;;;5057646;28;20055;-73
2023/04/26 08:40:03;;;;;;;8.48;1.98;;;9.00;99.90;;;;;;5056935;28;20067;-74
2023/04/26 08:42:30;;;;;;;5.30;1.85;;;9.10;99.90;;;;;;5056875;28;20028;-74
2023/04/26 08:44:59;;;;;;;5.80;2.05;;;9.50;99.90;;;;;;5056680;28;20123;-73
2023/04/26 08:47:33;;;;;;;9.27;1.92;;;9.40;99.90;;;;;;5057710;28;20021;-73
2023/04/26 08:50:02;;;;;;;4.97;1.38;;;9.30;99.90;;;;;;5056700;28;20028;-73
2023/04/26 08:52:29;;;;;;;5.43;2.08;;;9.20;99.90;;;;;;5057510;28;20058;-73
2023/04/26 08:54:56;;;;;;;9.10;2.30;;;9.20;99.90;;;;;;5056493;28;20028;-73
2023/04/26 08:57:23;;;;;;;3.88;1.25;;;9.30;99.90;;;;;;5056546;28;20106;-73
2023/04/26 08:59:50;;;;;;;7.05;1.70;;;9.30;99.90;;;;;;5056490;28;20021;-71
2023/04/26 09:02:20;;;;;;;5.90;1.30;;;9.40;99.90;;;;;;5057353;28;20017;-70
2023/04/26 09:04:47;;;;;;;1.23;1.00;;;9.70;99.90;;;;;;5057236;28;20056;-71
2023/04/26 09:07:32;;;;;;;3.03;1.50;;;9.90;99.90;;;;;;5057367;28;20024;-71
2023/04/26 09:09:58;;;;;;;5.65;1.38;;;10.30;99.90;;;;;;5056331;28;20021;-70
2023/04/26 09:12:25;;;;;;;3.05;0.90;;;10.30;99.90;;;;;;5056343;28;20067;-70
2023/04/26 09:14:51;;;;;;;3.35;1.38;;;10.30;99.90;;;;;;5056846;28;20048;-70
2023/04/26 09:17:29;;;;;;;2.63;0.95;;;10.30;99.90;;;;;;5056271;28;20056;-71
2023/04/26 09:19:55;;;;;;;7.88;1.30;;;10.20;99.90;;;;;;5056308;28;20021;-70
2023/04/26 09:22:48;;;;;;;1.73;0.80;;;10.30;99.90;;;;;;5056408;28;20025;-70
2023/04/26 09:25:16;;;;;;;9.93;1.45;;;10.30;99.90;;;;;;5041035;28;20029;-71
2023/04/26 09:27:43;;;;;;;5.25;1.30;;;10.10;99.90;;;;;;5056352;28;20116;-70
2023/04/26 09:30:14;;;;;;;3.50;1.55;;;10.30;99.90;;;;;;5056168;28;20032;-71
2023/04/26 09:32:46;;;;;;;4.53;1.52;;;10.20;99.90;;;;;;5057081;28;20033;-71
2023/04/26 09:35:23;;;;;;;4.97;1.85;;;10.30;99.90;;;;;;5056054;28;20029;-71
2023/04/26 09:38:00;;;;;;;4.47;1.20;;;10.30;99.90;;;;;;5056051;28;20056;-70
2023/04/26 09:41:05;;;;;;;4.43;1.65;;;10.40;99.90;;;;;;5056806;28;20044;-71
2023/04/26 09:43:38;;;;;;;6.68;1.65;;;10.30;99.90;;;;;;5055923;28;20132;-70
2023/04/26 09:46:04;;;;;;;4.45;1.20;;;10.20;99.90;;;;;;5056277;28;20037;-70
2023/04/26 09:48:33;;;;;;;3.65;1.55;;;10.20;99.90;;;;;;5056032;28;20025;-70
2023/04/26 09:51:01;;;;;;;4.82;1.60;;;10.30;99.90;;;;;;5055772;28;20083;-70
2023/04/26 09:53:33;;;;;;;6.47;1.65;;;10.60;99.90;;;;;;5055890;28;20025;-70
2023/04/26 09:56:17;;;;;;;4.53;1.25;;;10.50;99.90;;;;;;5056579;28;20021;-70
2023/04/26 09:58:43;;;;;;;6.30;1.27;;;10.70;99.90;;;;;;5055814;28;20029;-70
2023/04/26 10:01:10;;;;;;;7.65;1.60;;;10.70;99.90;;;;;;5056693;28;20117;-70
2023/04/26 10:03:36;;;;;;;3.67;1.58;;;10.80;99.90;;;;;;5056827;28;20044;-71
2023/04/26 10:06:03;;;;;;;3.83;1.45;;;10.80;99.90;;;;;;5056052;28;20029;-70
2023/04/26 10:08:30;;;;;;;4.07;1.42;;;11.10;99.90;;;;;;5056512;28;20025;-70
2023/04/26 10:10:56;;;;;;;6.10;1.27;;;11.30;99.90;;;;;;5056550;28;20017;-72
2023/04/26 10:13:21;;;;;;;3.22;1.35;;;11.10;99.90;;;;;;5056674;28;20036;-72
2023/04/26 10:15:47;;;;;;;7.07;1.88;;;10.90;99.90;;;;;;5055936;28;20025;-72
2023/04/26 10:18:13;;;;;;;6.00;1.80;;;10.80;99.90;;;;;;5056852;28;20028;-72
2023/04/26 10:20:42;;;;;;;10.27;1.70;;;10.90;99.90;;;;;;5056832;28;20013;-72
2023/04/26 10:23:19;;;;;;;8.27;1.52;;;10.80;99.90;;;;;;5057383;28;20116;-72
2023/04/26 10:25:45;;;;;;;5.57;1.58;;;11.10;99.90;;;;;;5060565;28;20032;-72
2023/04/26 10:28:11;;;;;;;3.75;1.35;;;11.10;99.90;;;;;;5059246;28;20025;-72
2023/04/26 10:31:00;;;;;;;9.40;1.70;;;11.00;99.90;;;;;;5059662;28;20039;-72
2023/04/26 10:33:26;;;;;;;4.28;1.20;;;11.20;99.90;;;;;;5060214;28;20021;-72
2023/04/26 10:36:12;;;;;;;5.55;1.65;;;11.00;99.90;;;;;;5058954;28;20021;-72
2023/04/26 10:38:40;;;;;;;2.67;1.27;;;11.10;99.90;;;;;;5059220;28;20017;-72
2023/04/26 10:41:29;;;;;;;4.15;2.10;;;11.40;99.90;;;;;;5058989;28;20056;-72
2023/04/26 10:43:54;;;;;;;3.13;1.70;;;11.20;99.90;;;;;;5059045;28;20045;-72
2023/04/26 10:46:37;;;;;;;5.63;2.13;;;11.70;99.90;;;;;;5059145;28;20051;-72
2023/04/26 10:49:16;;;;;;;6.05;1.63;;;11.70;99.90;;;;;;5059846;28;20070;-73
2023/04/26 10:52:11;;;;;;;5.20;1.42;;;11.50;99.90;;;;;;5059717;28;20021;-73
2023/04/26 10:54:56;;;;;;;5.60;1.58;;;12.20;99.90;;;;;;5059013;28;20028;-72
2023/04/26 10:57:23;;;;;;;2.75;1.45;;;12.40;99.80;;;;;;5059036;28;20029;-72
2023/04/26 11:00:25;;;;;;;5.22;1.40;;;12.10;98.90;;;;;;5058689;28;20044;-71
2023/04/26 11:03:01;;;;;;;7.78;1.30;;;11.50;99.90;;;;;;5001958;28;20057;-70
2023/04/26 11:05:52;;;;;;;7.05;1.40;;;11.60;99.90;;;;;;5018219;28;20030;-70
2023/04/26 11:08:20;;;;;;;8.27;2.97;;;11.50;99.90;;;;;;5018175;28;20022;-70
2023/04/26 11:11:05;;;;;;;4.65;1.92;;;11.70;99.90;;;;;;5018185;28;20053;-70
2023/04/26 11:13:32;;;;;;;5.53;1.73;;;11.60;99.90;;;;;;5018229;28;20030;-70
2023/04/26 11:16:03;;;;;;;5.53;1.45;;;11.70;99.90;;;;;;5018018;28;20036;-70
2023/04/26 11:18:29;;;;;;;6.38;1.50;;;11.50;99.90;;;;;;5017876;28;20026;-70
2023/04/26 11:20:56;;;;;;;5.38;1.63;;;11.60;99.90;;;;;;5018372;28;20029;-70
2023/04/26 11:23:22;;;;;;;3.47;1.60;;;11.60;99.90;;;;;;5018166;28;20022;-70
2023/04/26 11:25:48;;;;;;;5.20;1.63;;;11.70;99.90;;;;;;5017809;28;20034;-70
2023/04/26 11:28:14;;;;;;;7.00;1.80;;;11.70;99.90;;;;;;5017839;28;20032;-70
2023/04/26 11:30:40;;;;;;;5.13;1.73;;;12.20;99.90;;;;;;5017705;28;20105;-70
2023/04/26 11:33:05;;;;;;;5.25;1.52;;;12.20;99.90;;;;;;5017627;28;20033;-70
2023/04/26 11:35:39;;;;;;;9.32;1.95;;;12.10;99.90;;;;;;5016592;28;20045;-70
2023/04/26 11:38:04;;;;;;;5.97;1.98;;;12.10;99.50;;;;;;5038028;28;20087;-70
2023/04/26 11:40:31;;;;;;;5.63;1.77;;;12.40;98.80;;;;;;5058000;28;20017;-70
2023/04/26 11:43:07;;;;;;;4.45;1.60;;;12.50;97.10;;;;;;5058909;28;20035;-70
2023/04/26 11:45:35;;;;;;;3.38;1.38;;;13.10;97.30;;;;;;5058376;28;20037;-70
2023/04/26 11:48:02;;;;;;;4.68;1.52;;;13.80;94.90;;;;;;5057781;28;20032;-70
2023/04/26 11:50:30;;;;;;;2.95;1.40;;;14.00;94.80;;;;;;5058719;28;20029;-70
2023/04/26 11:52:58;;;;;;;2.70;1.40;;;14.30;93.70;;;;;;5058139;28;20025;-71
2023/04/26 11:55:27;;;;;;;5.40;1.73;;;14.50;92.80;;;;;;5057744;28;20029;-71
2023/04/26 11:57:53;;;;;;;8.45;1.90;;;15.20;90.50;;;;;;5057559;28;20025;-71
2023/04/26 12:00:20;;;;;;;5.47;2.00;;;14.80;91.10;;;;;;5058492;28;20032;-71
2023/04/26 12:02:49;;;;;;;2.88;1.70;;;14.00;92.70;;;;;;5057516;28;20029;-71
2023/04/26 12:05:27;;;;;;;3.88;1.30;;;13.40;91.70;;;;;;5057685;28;20039;-71
2023/04/26 12:07:54;;;;;;;4.70;1.40;;;13.40;91.80;;;;;;5058367;28;20025;-71
2023/04/26 12:10:27;;;;;;;3.65;1.30;;;14.30;90.80;;;;;;5057630;28;20052;-71
2023/04/26 12:12:57;;;;;;;8.15;2.10;;;14.20;89.10;;;;;;5058197;28;20052;-71
2023/04/26 12:15:29;;;;;;;6.80;1.40;;;13.80;90.10;;;;;;5057842;28;20028;-72
2023/04/26 12:17:56;;;;;;;;;;;14.40;90.10;;;;;;5057667;28;20063;-70
2023/04/26 12:20:35;;;;;;;4.25;1.33;;;14.80;87.70;;;;;;5058164;28;19909;-71
2023/04/26 12:23:03;;;;;;;4.80;1.20;;;14.60;89.60;;;;;;5057663;28;20028;-71
2023/04/26 12:25:29;;;;;;;6.80;1.30;;;14.40;89.20;;;;;;5057367;28;20021;-71
2023/04/26 12:27:55;;;;;;;6.47;1.52;;;15.20;85.40;;;;;;5057028;28;20029;-71
2023/04/26 12:30:21;;;;;;;4.50;1.30;;;15.80;83.90;;;;;;5057380;28;20028;-70
2023/04/26 12:32:46;;;;;;;3.45;1.63;;;16.10;83.10;;;;;;5057025;28;20029;-69
2023/04/26 12:35:12;;;;;;;5.72;1.70;;;15.30;85.10;;;;;;5057661;28;20029;-70
2023/04/26 12:37:37;;;;;;;6.47;1.67;;;15.20;89.70;;;;;;5056958;28;20025;-70
2023/04/26 12:40:05;;;;;;;5.25;1.90;;;;;;;;;;5057717;28;20017;-70
2023/04/26 12:42:31;;;;;;;3.08;1.98;;;16.60;85.20;;;;;;5057526;28;20025;-70
2023/04/26 12:44:56;;;;;;;6.88;2.00;;;17.40;81.40;;;;;;5056337;28;20033;-70
2023/04/26 12:47:22;;;;;;;3.38;1.60;;;17.90;78.50;;;;;;5056973;28;20024;-70
2023/04/26 12:49:47;;;;;;;5.53;1.65;;;18.10;75.00;;;;;;5057794;28;20029;-70
2023/04/26 12:52:13;;;;;;;5.20;1.58;;;17.90;74.40;;;;;;5056563;28;20090;-70
2023/04/26 12:54:38;;;;;;;8.18;2.20;;;16.70;80.60;;;;;;5056504;28;20029;-70